Startpagina
METAR-TAF:

METAR-TAF

Vliegvelden :

Ndola, Zambia

breedte: 12-59-50S, lengte: 028-39-50E, hoogte: 1270 m

METAR: ontbreekt

Tijdstip: 06:52 (04:52 UTC)

Verwachting

Dit bericht is 6 uur en het 52 minuten geleden gemaakt, om 22:00 UTC
Verwachting geldig van 13 om 00 UTC tot 14 om 06 UTC
Wind 10 kt uit het zuidoosten met uitschieters tot 15 kt
Zicht 10 km of meer
geen wolken onder 1500 m en geen cumulonimbus
Wijzigt naar
van 13 om 04 UTC tot 13 om 06 UTC
Wind 5 kt uit het oostzuidoosten met uitschieters tot 20 kt
Zicht: 7000 m
rook
Wijzigt naar
van 13 om 12 UTC tot 13 om 14 UTC
Wind 10 kt uit het zuidoosten
Van 13 om 1700 UTC
Zicht 10 km of meer
geen wolken onder 1500 m en geen cumulonimbus

TAF: FLSK 122200Z 1300/1406 13010G15KT CAVOK BECMG 1304/1306 12005G20KT 7000 FU NSC BECMG 1312/1314 13010KT FM131700 CAVOK

Waarnemingen en weersverwachtingen van meer dan 4000 vliegvelden (METAR en TAF).

De beschikbare stations zijn de gele en rode punten op de kaart.

Ga met uw muis naar het station om de naam te zien.

Klik dan om waarnemingen en weersverwachtingen te zien.

kaart wijzigen: klik op de groene knoppen met een zwart kruis om in te zoomen, op de groene knop met een streepje om uit te zoomen of op de groene pijlen voor aangrenzende kaarten.


METAR-TAF: